createdAt,value
2022-11-06T00:00:18.303Z,16.83
2022-11-06T00:01:23.174Z,17.26
2022-11-06T00:02:26.404Z,16.02
2022-11-06T00:03:29.638Z,16.27
2022-11-06T00:04:32.621Z,16.02
2022-11-06T00:05:58.724Z,14.76
2022-11-06T00:07:01.687Z,13.98
2022-11-06T00:08:04.828Z,14.54
2022-11-06T00:09:10.665Z,14.95
2022-11-06T00:10:15.877Z,15.09
2022-11-06T00:11:18.778Z,14.85
2022-11-06T00:12:21.756Z,14.63
2022-11-06T00:13:24.594Z,15.37
2022-11-06T00:14:28.217Z,14.54
2022-11-06T00:15:31.201Z,15.04
2022-11-06T00:16:34.045Z,14.98
2022-11-06T00:17:37.647Z,15.16
2022-11-06T00:18:41.407Z,14.98
2022-11-06T00:19:44.286Z,13.63
2022-11-06T00:20:47.436Z,14.76
2022-11-06T00:21:50.365Z,14.96
2022-11-06T00:22:53.468Z,14.95
2022-11-06T00:23:58.439Z,14.09
2022-11-06T00:25:02.472Z,14.64
2022-11-06T00:26:08.657Z,14.99
2022-11-06T00:27:14.077Z,14.41
2022-11-06T00:28:17.172Z,14.31
2022-11-06T00:29:20.160Z,14.17
2022-11-06T00:30:25.070Z,14.27
2022-11-06T00:31:30.046Z,13.61
2022-11-06T00:32:33.340Z,13.50
2022-11-06T00:33:36.535Z,14.49
2022-11-06T00:34:40.535Z,13.51
2022-11-06T00:35:43.545Z,14.45
2022-11-06T00:36:47.597Z,13.58
2022-11-06T00:37:50.630Z,14.05
2022-11-06T00:38:55.164Z,14.07
2022-11-06T00:39:58.946Z,14.39
2022-11-06T00:41:07.592Z,14.85
2022-11-06T00:42:10.822Z,14.36
2022-11-06T00:43:14.175Z,14.98
2022-11-06T00:44:17.362Z,13.13
2022-11-06T00:45:20.329Z,14.56
2022-11-06T00:46:23.886Z,12.75
2022-11-06T00:47:27.700Z,12.91
2022-11-06T00:48:30.995Z,13.51
2022-11-06T00:49:35.012Z,13.19
2022-11-06T00:50:38.691Z,13.65
2022-11-06T00:51:43.457Z,13.41
2022-11-06T00:52:46.631Z,13.68
2022-11-06T00:53:55.404Z,13.21
2022-11-06T00:54:58.354Z,14.07
2022-11-06T00:56:06.659Z,14.09
2022-11-06T00:57:09.980Z,14.07
2022-11-06T00:58:13.242Z,13.39
2022-11-06T00:59:16.537Z,14.20
2022-11-06T01:00:20.241Z,12.58
2022-11-06T01:01:25.619Z,13.36
2022-11-06T01:02:28.848Z,13.22
2022-11-06T01:03:31.935Z,12.57
2022-11-06T01:04:34.856Z,13.09
2022-11-06T01:05:37.753Z,12.54
2022-11-06T01:06:43.854Z,12.36
2022-11-06T01:07:46.740Z,13.27
2022-11-06T01:08:50.695Z,13.72
2022-11-06T01:09:53.768Z,13.60
2022-11-06T01:10:56.842Z,17.00
2022-11-06T01:12:15.170Z,17.76
2022-11-06T01:13:04.628Z,17.12
2022-11-06T01:14:10.305Z,16.97
2022-11-06T01:15:13.178Z,15.67
2022-11-06T01:16:16.539Z,15.42
2022-11-06T01:17:19.526Z,12.95
2022-11-06T01:18:22.517Z,12.63
2022-11-06T01:19:25.522Z,13.66
2022-11-06T01:20:28.340Z,11.68
2022-11-06T01:21:33.781Z,13.32
2022-11-06T01:22:37.064Z,13.09
2022-11-06T01:23:40.349Z,13.33
2022-11-06T01:24:43.447Z,12.70
2022-11-06T01:25:52.807Z,12.28
2022-11-06T01:28:01.407Z,11.47
2022-11-06T01:29:06.138Z,12.59
2022-11-06T01:30:10.187Z,12.19
2022-11-06T01:31:15.808Z,10.59
2022-11-06T01:32:18.848Z,11.43
2022-11-06T01:33:22.550Z,11.44
2022-11-06T01:34:25.893Z,10.94
2022-11-06T01:35:28.855Z,10.34
2022-11-06T01:36:32.713Z,10.71
2022-11-06T01:37:35.722Z,11.19
2022-11-06T01:38:42.718Z,10.22
2022-11-06T01:39:45.780Z,10.42
2022-11-06T01:40:49.304Z,11.31
2022-11-06T01:41:53.466Z,10.19
2022-11-06T01:42:56.706Z,10.48
2022-11-06T01:44:09.446Z,10.81
2022-11-06T01:46:32.917Z,10.02
2022-11-06T01:47:36.329Z,10.14
2022-11-06T01:48:41.579Z,9.98
2022-11-06T01:49:44.731Z,10.32
2022-11-06T01:50:51.156Z,10.56
2022-11-06T01:51:57.409Z,10.88
2022-11-06T01:53:01.975Z,10.52
2022-11-06T01:54:07.161Z,9.96
2022-11-06T01:55:22.786Z,9.87
2022-11-06T01:56:25.945Z,10.10
2022-11-06T01:57:28.910Z,9.56
2022-11-06T01:58:34.697Z,10.10
2022-11-06T01:59:40.874Z,9.99
2022-11-06T02:00:45.062Z,10.84
2022-11-06T02:01:48.155Z,9.36
2022-11-06T02:02:51.533Z,10.99
2022-11-06T02:04:06.722Z,10.91
2022-11-06T02:05:09.598Z,9.46
2022-11-06T02:06:13.294Z,9.98
2022-11-06T02:07:17.623Z,9.59
2022-11-06T02:08:22.021Z,10.40
2022-11-06T02:09:25.573Z,9.68
2022-11-06T02:10:29.814Z,9.76
2022-11-06T02:11:32.669Z,9.58
2022-11-06T02:12:49.079Z,9.99
2022-11-06T02:14:13.882Z,9.32
2022-11-06T02:15:29.471Z,9.57
2022-11-06T02:16:39.428Z,9.17
2022-11-06T02:18:03.966Z,9.70
2022-11-06T02:19:10.400Z,9.25
2022-11-06T02:20:23.605Z,9.13
2022-11-06T02:21:46.598Z,9.38
2022-11-06T02:23:07.923Z,8.72
2022-11-06T02:24:17.314Z,9.21
2022-11-06T02:25:32.175Z,8.85
2022-11-06T02:26:53.836Z,9.37
2022-11-06T02:28:24.492Z,9.45
2022-11-06T02:29:37.262Z,8.77
2022-11-06T02:30:43.766Z,9.17
2022-11-06T02:31:49.404Z,8.94
2022-11-06T02:33:01.357Z,10.34
2022-11-06T02:34:07.974Z,8.71
2022-11-06T02:35:34.750Z,8.74
2022-11-06T02:36:44.015Z,9.42
2022-11-06T02:37:51.880Z,8.49
2022-11-06T02:38:59.218Z,9.35
2022-11-06T02:40:05.909Z,10.24
2022-11-06T02:41:12.483Z,9.48
2022-11-06T02:42:19.488Z,8.56
2022-11-06T02:43:26.141Z,9.57
2022-11-06T02:44:32.087Z,10.14
2022-11-06T02:45:51.142Z,9.21
2022-11-06T02:46:57.658Z,9.18
2022-11-06T02:48:02.812Z,9.16
2022-11-06T02:49:09.233Z,9.44
2022-11-06T02:50:16.853Z,9.15
2022-11-06T02:51:25.410Z,9.61
2022-11-06T02:52:40.877Z,9.74
2022-11-06T02:53:46.340Z,10.40
2022-11-06T02:54:52.767Z,10.14
2022-11-06T02:55:59.271Z,10.54
2022-11-06T02:57:08.424Z,9.49
2022-11-06T02:58:18.632Z,9.54
2022-11-06T02:59:25.266Z,9.28
2022-11-06T03:00:28.578Z,9.49
2022-11-06T03:01:46.793Z,9.19
2022-11-06T03:02:56.803Z,8.18
2022-11-06T03:04:03.630Z,8.80
2022-11-06T03:05:19.359Z,9.73
2022-11-06T03:06:39.295Z,8.56
2022-11-06T03:07:46.026Z,9.10
2022-11-06T03:08:54.179Z,9.28
2022-11-06T03:09:57.730Z,9.49
2022-11-06T03:11:19.101Z,9.66
2022-11-06T03:12:26.324Z,9.14
2022-11-06T03:13:37.023Z,8.76
2022-11-06T03:14:49.305Z,7.62
2022-11-06T03:16:00.736Z,8.13
2022-11-06T03:17:07.274Z,8.15
2022-11-06T03:18:20.117Z,7.13
2022-11-06T03:19:47.065Z,8.82
2022-11-06T03:21:02.147Z,8.18
2022-11-06T03:22:12.509Z,8.71
2022-11-06T03:23:24.729Z,8.59
2022-11-06T03:24:31.532Z,9.27
2022-11-06T03:25:53.091Z,9.41
2022-11-06T03:26:58.568Z,9.32
2022-11-06T03:28:13.864Z,9.13
2022-11-06T03:29:26.247Z,8.99
2022-11-06T03:30:30.541Z,9.56
2022-11-06T03:31:37.077Z,8.98
2022-11-06T03:33:00.151Z,9.18
2022-11-06T03:34:06.671Z,9.78
2022-11-06T03:35:13.275Z,9.24
2022-11-06T03:36:33.044Z,9.57
2022-11-06T03:37:48.213Z,9.04
2022-11-06T03:38:57.679Z,8.98
2022-11-06T03:40:04.145Z,9.14
2022-11-06T03:41:10.655Z,8.56
2022-11-06T03:42:16.741Z,8.71
2022-11-06T03:43:23.150Z,9.04
2022-11-06T03:44:28.219Z,9.08
2022-11-06T03:45:33.495Z,8.88
2022-11-06T03:46:40.240Z,8.85
2022-11-06T03:47:46.755Z,9.04
2022-11-06T03:48:55.861Z,9.00
2022-11-06T03:50:14.380Z,8.80
2022-11-06T03:51:35.583Z,8.92
2022-11-06T03:52:48.322Z,8.99
2022-11-06T03:53:54.815Z,8.91
2022-11-06T03:55:07.019Z,8.73
2022-11-06T03:56:31.784Z,8.36
2022-11-06T03:57:50.073Z,9.14
2022-11-06T03:58:55.569Z,9.27
2022-11-06T04:00:01.115Z,9.00
2022-11-06T04:01:07.351Z,9.09
2022-11-06T04:02:13.440Z,9.10
2022-11-06T04:03:20.052Z,9.17
2022-11-06T04:04:29.616Z,8.34
2022-11-06T04:05:39.242Z,9.14
2022-11-06T04:06:57.432Z,8.76
2022-11-06T04:08:19.239Z,8.65
2022-11-06T04:09:44.148Z,8.42
2022-11-06T04:11:09.043Z,9.42
2022-11-06T04:12:32.947Z,8.92
2022-11-06T04:13:56.932Z,9.39
2022-11-06T04:15:01.086Z,9.26
2022-11-06T04:16:06.237Z,8.58
2022-11-06T04:17:12.703Z,9.13
2022-11-06T04:18:20.787Z,8.78
2022-11-06T04:19:23.869Z,8.44
2022-11-06T04:20:48.729Z,9.68
2022-11-06T04:22:23.882Z,8.48
2022-11-06T04:23:33.041Z,8.45
2022-11-06T04:25:16.458Z,9.05
2022-11-06T04:26:37.492Z,8.73
2022-11-06T04:29:12.231Z,9.47
2022-11-06T04:30:17.666Z,9.45
2022-11-06T04:31:27.215Z,9.26
2022-11-06T04:32:39.738Z,9.72
2022-11-06T04:33:49.387Z,9.73
2022-11-06T04:34:58.667Z,8.98
2022-11-06T04:36:07.892Z,8.47
2022-11-06T04:37:14.798Z,9.33
2022-11-06T04:38:36.869Z,9.31
2022-11-06T04:39:58.590Z,9.49
2022-11-06T04:41:14.263Z,10.11
2022-11-06T04:42:43.260Z,9.69
2022-11-06T04:43:52.692Z,8.90
2022-11-06T04:45:01.911Z,10.17
2022-11-06T04:46:07.937Z,8.82
2022-11-06T04:47:14.352Z,9.28
2022-11-06T04:48:18.767Z,9.72
2022-11-06T04:49:23.379Z,9.92
2022-11-06T04:50:28.488Z,9.50
2022-11-06T04:51:34.554Z,9.76
2022-11-06T04:52:39.456Z,9.16
2022-11-06T04:53:43.735Z,8.73
2022-11-06T04:54:47.445Z,9.11
2022-11-06T04:55:53.845Z,9.46
2022-11-06T04:57:00.080Z,9.01
2022-11-06T04:58:02.967Z,10.18
2022-11-06T04:59:06.417Z,9.63
2022-11-06T05:00:16.880Z,9.14
2022-11-06T05:01:20.173Z,9.47
2022-11-06T05:02:23.804Z,9.38
2022-11-06T05:03:26.908Z,9.02
2022-11-06T05:04:32.441Z,9.66
2022-11-06T05:05:35.047Z,9.54
2022-11-06T05:06:37.879Z,8.97
2022-11-06T05:07:41.697Z,9.29
2022-11-06T05:08:47.212Z,9.74
2022-11-06T05:09:50.374Z,9.35
2022-11-06T05:10:54.705Z,9.69
2022-11-06T05:11:57.991Z,8.61
2022-11-06T05:13:00.926Z,8.89
2022-11-06T05:14:03.947Z,9.67
2022-11-06T05:15:07.765Z,9.37
2022-11-06T05:16:11.490Z,9.77
2022-11-06T05:17:15.460Z,9.46
2022-11-06T05:18:18.737Z,9.86
2022-11-06T05:19:21.780Z,9.41
2022-11-06T05:20:25.122Z,10.04
2022-11-06T05:21:46.620Z,9.94
2022-11-06T05:23:00.524Z,9.60
2022-11-06T05:24:04.534Z,9.77
2022-11-06T05:25:08.023Z,9.94
2022-11-06T05:26:11.156Z,10.53
2022-11-06T05:27:14.515Z,9.66
2022-11-06T05:28:17.456Z,9.93
2022-11-06T05:29:21.036Z,10.53
2022-11-06T05:30:24.382Z,9.98
2022-11-06T05:31:27.920Z,10.13
2022-11-06T05:32:31.588Z,10.65
2022-11-06T05:33:34.533Z,11.08
2022-11-06T05:34:37.567Z,10.87
2022-11-06T05:35:41.054Z,10.71
2022-11-06T05:36:44.058Z,10.39
2022-11-06T05:37:47.631Z,10.89
2022-11-06T05:38:50.871Z,10.72
2022-11-06T05:39:54.792Z,11.86
2022-11-06T05:40:57.637Z,11.30
2022-11-06T05:42:00.742Z,11.46
2022-11-06T05:43:03.924Z,10.79
2022-11-06T05:44:06.758Z,10.64
2022-11-06T05:45:10.785Z,11.15
2022-11-06T05:46:35.819Z,11.36
2022-11-06T05:47:20.434Z,11.62
2022-11-06T05:48:23.524Z,11.19
2022-11-06T05:49:26.367Z,11.24
2022-11-06T05:50:29.543Z,10.81
2022-11-06T05:51:35.300Z,10.81
2022-11-06T05:52:38.418Z,11.91
2022-11-06T05:53:41.282Z,11.14
2022-11-06T05:54:44.267Z,11.39
2022-11-06T05:55:47.366Z,11.16
2022-11-06T05:56:50.582Z,11.84
2022-11-06T05:57:53.609Z,11.09
2022-11-06T05:58:56.536Z,11.00
2022-11-06T05:59:59.582Z,12.80
2022-11-06T06:01:02.411Z,11.46
2022-11-06T06:02:05.373Z,11.78
2022-11-06T06:03:09.465Z,11.49
2022-11-06T06:04:12.463Z,12.65
2022-11-06T06:05:15.442Z,12.39
2022-11-06T06:06:19.590Z,12.81
2022-11-06T06:07:22.653Z,13.09
2022-11-06T06:08:25.708Z,13.21
2022-11-06T06:09:28.860Z,12.94
2022-11-06T06:10:31.817Z,12.97
2022-11-06T06:11:34.744Z,12.76
2022-11-06T06:12:39.043Z,13.07
2022-11-06T06:13:42.045Z,13.34
2022-11-06T06:14:50.140Z,13.21
2022-11-06T06:15:49.948Z,13.06
2022-11-06T06:16:52.762Z,13.28
2022-11-06T06:17:57.592Z,13.36
2022-11-06T06:19:00.573Z,12.85
2022-11-06T06:20:03.678Z,13.73
2022-11-06T06:21:07.155Z,13.21
2022-11-06T06:22:10.380Z,13.64
2022-11-06T06:23:13.462Z,14.09
2022-11-06T06:24:16.676Z,13.21
2022-11-06T06:25:23.054Z,13.97
2022-11-06T06:26:24.610Z,13.57
2022-11-06T06:27:27.671Z,13.78
2022-11-06T06:28:31.379Z,14.60
2022-11-06T06:29:34.317Z,13.22
2022-11-06T06:30:38.395Z,14.06
2022-11-06T06:31:41.317Z,14.16
2022-11-06T06:32:44.229Z,13.58
2022-11-06T06:33:47.494Z,14.33
2022-11-06T06:34:50.694Z,13.79
2022-11-06T06:35:53.534Z,13.89
2022-11-06T06:36:56.463Z,13.52
2022-11-06T06:37:59.453Z,12.68
2022-11-06T06:39:03.252Z,13.98
2022-11-06T06:40:07.128Z,14.16
2022-11-06T06:41:10.304Z,13.74
2022-11-06T06:42:13.260Z,13.91
2022-11-06T06:43:17.152Z,14.39
2022-11-06T06:44:20.397Z,13.92
2022-11-06T06:45:23.852Z,13.73
2022-11-06T06:46:28.782Z,14.86
2022-11-06T06:47:32.671Z,14.49
2022-11-06T06:48:35.728Z,14.35
2022-11-06T06:49:38.596Z,14.42
2022-11-06T06:50:41.441Z,13.56
2022-11-06T06:51:44.442Z,13.91
2022-11-06T06:52:48.560Z,14.42
2022-11-06T06:53:51.628Z,14.28
2022-11-06T06:54:54.939Z,14.29
2022-11-06T06:56:01.058Z,14.51
2022-11-06T06:57:05.738Z,13.69
2022-11-06T06:58:13.651Z,13.75
2022-11-06T06:59:15.466Z,14.53
2022-11-06T07:00:19.001Z,13.81
2022-11-06T07:01:22.503Z,12.85
2022-11-06T07:02:25.853Z,13.03
2022-11-06T07:03:29.158Z,12.94
2022-11-06T07:04:32.554Z,12.71
2022-11-06T07:05:36.098Z,11.82
2022-11-06T07:06:38.956Z,12.50
2022-11-06T07:07:41.871Z,11.31
2022-11-06T07:08:44.722Z,12.49
2022-11-06T07:09:47.554Z,12.58
2022-11-06T07:10:50.870Z,12.65
2022-11-06T07:11:54.155Z,11.96
2022-11-06T07:13:03.032Z,13.19
2022-11-06T07:14:07.086Z,12.11
2022-11-06T07:15:10.891Z,12.79
2022-11-06T07:16:13.917Z,12.29
2022-11-06T07:17:16.910Z,11.48
2022-11-06T07:18:20.086Z,11.80
2022-11-06T07:19:29.376Z,10.83
2022-11-06T07:20:33.891Z,11.64
2022-11-06T07:21:36.774Z,11.14
2022-11-06T07:22:39.683Z,10.58
2022-11-06T07:23:42.827Z,10.31
2022-11-06T07:24:45.651Z,10.11
2022-11-06T07:25:53.508Z,10.04
2022-11-06T07:26:56.367Z,9.98
2022-11-06T07:28:07.054Z,10.82
2022-11-06T07:29:10.045Z,9.89
2022-11-06T07:30:13.499Z,9.86
2022-11-06T07:31:16.757Z,9.49
2022-11-06T11:32:30.630Z,10.18
2022-11-06T11:33:34.869Z,10.61
2022-11-06T11:34:46.095Z,10.14
2022-11-06T11:35:49.167Z,9.16
2022-11-06T11:38:13.284Z,8.79
2022-11-06T11:39:19.052Z,9.20
2022-11-06T11:40:37.233Z,9.21
2022-11-06T11:41:40.317Z,8.41
2022-11-06T11:42:43.326Z,8.62
2022-11-06T11:43:59.058Z,8.13
2022-11-06T11:45:11.856Z,8.29
2022-11-06T11:46:18.583Z,8.32
2022-11-06T11:47:23.963Z,9.23
2022-11-06T11:48:26.959Z,8.76
2022-11-06T11:49:32.761Z,9.20
2022-11-06T11:50:36.015Z,8.17
2022-11-06T11:51:42.714Z,7.97
2022-11-06T11:52:47.695Z,8.21
2022-11-06T11:53:52.261Z,7.89
2022-11-06T11:54:55.594Z,7.46
2022-11-06T11:55:58.824Z,7.21
2022-11-06T11:57:08.529Z,7.34
2022-11-06T11:58:24.175Z,7.52
2022-11-06T11:59:30.902Z,8.10
2022-11-06T12:00:34.040Z,8.41
2022-11-06T12:01:40.160Z,7.19
2022-11-06T12:03:02.811Z,7.77
2022-11-06T12:04:21.250Z,8.04
2022-11-06T12:05:36.726Z,7.51
2022-11-06T12:06:53.149Z,7.83
2022-11-06T12:07:58.016Z,8.03
2022-11-06T12:09:01.264Z,8.58
2022-11-06T12:10:24.249Z,8.06
2022-11-06T12:11:30.107Z,7.96
2022-11-06T12:12:34.589Z,7.95
2022-11-06T12:13:37.664Z,8.11
2022-11-06T12:14:40.530Z,7.66
2022-11-06T12:16:02.345Z,8.38
2022-11-06T12:17:11.941Z,8.16
2022-11-06T12:18:18.319Z,8.26
2022-11-06T12:19:23.915Z,8.58
2022-11-06T12:20:42.487Z,8.01
2022-11-06T12:21:49.168Z,8.19
2022-11-06T12:22:54.844Z,9.23
2022-11-06T12:24:16.382Z,8.94
2022-11-06T12:25:25.845Z,8.44
2022-11-06T12:26:54.270Z,8.80
2022-11-06T12:28:01.112Z,8.44
2022-11-06T12:29:14.711Z,8.36
2022-11-06T12:30:20.092Z,9.32
2022-11-06T12:31:42.530Z,8.67
2022-11-06T12:32:55.376Z,8.94
2022-11-06T12:34:06.777Z,8.78
2022-11-06T12:35:26.083Z,8.52
2022-11-06T12:36:33.866Z,8.53
2022-11-06T12:37:58.625Z,8.57
2022-11-06T12:39:05.212Z,9.16
2022-11-06T12:40:25.081Z,9.49
2022-11-06T12:41:38.016Z,9.78
2022-11-06T12:42:44.862Z,9.62
2022-11-06T12:43:52.639Z,10.01
2022-11-06T12:44:55.990Z,11.39
2022-11-06T12:46:05.756Z,10.90
2022-11-06T12:47:16.028Z,10.73
2022-11-06T12:49:58.715Z,11.17
2022-11-06T12:51:05.281Z,12.26
2022-11-06T12:52:28.268Z,11.04
2022-11-06T12:53:35.011Z,11.43
2022-11-06T12:54:59.847Z,11.46
2022-11-06T12:56:12.685Z,10.97
2022-11-06T12:57:34.611Z,10.87
2022-11-06T12:58:47.160Z,12.03
2022-11-06T12:59:56.913Z,12.33
2022-11-06T13:01:12.361Z,13.94
2022-11-06T13:02:44.873Z,11.96
2022-11-06T13:04:09.522Z,12.28
2022-11-06T13:05:49.527Z,12.32
2022-11-06T13:07:08.002Z,11.43
2022-11-06T13:08:26.638Z,11.99
2022-11-06T13:09:39.045Z,11.72
2022-11-06T13:10:48.659Z,11.24
2022-11-06T13:12:04.524Z,10.97
2022-11-06T13:13:16.995Z,11.26
2022-11-06T13:14:38.379Z,11.62
2022-11-06T13:15:50.973Z,12.61
2022-11-06T13:17:09.501Z,11.31
2022-11-06T13:18:18.676Z,11.92
2022-11-06T13:19:44.915Z,11.34
2022-11-06T13:21:09.662Z,11.04
2022-11-06T13:23:54.103Z,11.37
2022-11-06T13:25:12.514Z,11.44
2022-11-06T13:26:33.977Z,12.03
2022-11-06T13:27:43.353Z,12.23
2022-11-06T13:28:50.212Z,12.84
2022-11-06T13:29:56.955Z,12.87
2022-11-06T13:31:02.843Z,12.63
2022-11-06T13:32:18.599Z,12.56
2022-11-06T13:33:31.265Z,14.09
2022-11-06T13:34:40.641Z,13.97
2022-11-06T13:35:45.470Z,13.15
2022-11-06T13:36:49.140Z,13.71
2022-11-06T13:37:54.202Z,13.41
2022-11-06T13:39:09.640Z,12.26
2022-11-06T13:40:31.844Z,13.41
2022-11-06T13:41:34.814Z,12.28
2022-11-06T13:42:41.037Z,11.95
2022-11-06T13:43:47.450Z,11.74
2022-11-06T13:44:51.635Z,11.84
2022-11-06T13:46:07.467Z,12.39
2022-11-06T13:47:45.796Z,11.89
2022-11-06T13:49:01.166Z,11.07
2022-11-06T13:50:07.996Z,11.37
2022-11-06T13:51:23.364Z,12.28
2022-11-06T13:52:48.237Z,13.35
2022-11-06T13:55:37.283Z,13.23
2022-11-06T13:56:46.814Z,13.10
2022-11-06T13:58:12.849Z,12.48
2022-11-06T13:59:35.841Z,12.64
2022-11-06T14:00:57.572Z,12.75
2022-11-06T14:02:13.188Z,12.28
2022-11-06T14:03:31.874Z,12.72
2022-11-06T14:04:55.363Z,12.21
2022-11-06T14:06:02.161Z,13.11
2022-11-06T14:07:07.844Z,13.53
2022-11-06T14:08:14.764Z,13.41
2022-11-06T14:09:24.355Z,12.99
2022-11-06T14:10:37.304Z,13.00
2022-11-06T14:11:43.794Z,13.52
2022-11-06T14:12:47.591Z,13.34
2022-11-06T14:14:05.937Z,13.59
2022-11-06T14:15:15.513Z,13.27
2022-11-06T14:16:24.785Z,12.88
2022-11-06T14:17:28.249Z,13.39
2022-11-06T14:18:32.473Z,13.16
2022-11-06T14:19:36.280Z,12.66
2022-11-06T14:20:39.582Z,12.35
2022-11-06T14:21:52.128Z,12.52
2022-11-06T14:22:55.102Z,12.67
2022-11-06T14:24:27.265Z,12.98
2022-11-06T14:25:34.114Z,13.47
2022-11-06T14:26:40.754Z,12.79
2022-11-06T14:27:53.020Z,13.52
2022-11-06T14:28:55.921Z,14.22
2022-11-06T14:30:07.142Z,14.05
2022-11-06T14:31:15.538Z,14.01
2022-11-06T14:32:33.452Z,14.92
2022-11-06T14:33:52.052Z,14.03
2022-11-06T14:34:55.201Z,14.48
2022-11-06T14:35:58.435Z,13.81
2022-11-06T14:37:31.168Z,13.79
2022-11-06T14:38:35.594Z,14.39
2022-11-06T14:40:00.012Z,13.82
2022-11-06T14:41:23.645Z,13.92
2022-11-06T14:42:39.249Z,14.21
2022-11-06T14:43:46.001Z,14.79
2022-11-06T14:44:53.965Z,14.66
2022-11-06T14:46:22.578Z,14.68
2022-11-06T14:47:53.874Z,13.59
2022-11-06T14:49:12.432Z,13.64
2022-11-06T14:50:27.929Z,13.94
2022-11-06T14:51:32.145Z,14.42
2022-11-06T14:52:45.855Z,13.98
2022-11-06T14:54:00.023Z,14.76
2022-11-06T14:55:06.459Z,14.53
2022-11-06T14:56:12.771Z,14.67
2022-11-06T14:57:18.644Z,13.92
2022-11-06T14:58:27.975Z,14.41
2022-11-06T14:59:36.702Z,14.18
2022-11-06T15:00:52.317Z,13.12
2022-11-06T15:01:59.501Z,12.59
2022-11-06T15:03:05.845Z,12.38
2022-11-06T15:04:20.473Z,12.09
2022-11-06T15:05:25.936Z,11.46
2022-11-06T15:06:38.516Z,11.08
2022-11-06T15:08:04.542Z,11.73
2022-11-06T15:08:54.021Z,11.53
2022-11-06T15:09:57.302Z,11.68
2022-11-06T15:11:00.354Z,10.99
2022-11-06T15:12:08.117Z,11.87
2022-11-06T15:13:14.182Z,11.45
2022-11-06T15:14:21.411Z,11.02
2022-11-06T15:15:25.193Z,10.36
2022-11-06T15:16:38.689Z,10.98
2022-11-06T15:17:42.232Z,9.83
2022-11-06T15:18:45.687Z,10.53
2022-11-06T15:24:40.359Z,9.07
2022-11-06T15:26:02.077Z,8.67
2022-11-06T15:27:17.766Z,9.49
2022-11-06T15:28:27.140Z,10.67
2022-11-06T15:29:33.885Z,11.28
2022-11-06T15:30:52.287Z,11.78
2022-11-06T15:32:06.921Z,12.01
2022-11-06T15:33:14.140Z,12.89
2022-11-06T15:34:30.103Z,13.95
2022-11-06T15:35:35.479Z,14.82
2022-11-06T15:36:41.355Z,16.33
2022-11-06T15:37:55.254Z,15.67
2022-11-06T15:38:58.373Z,18.21
2022-11-06T15:40:01.995Z,17.81
2022-11-06T15:41:08.008Z,17.66
2022-11-06T15:42:17.631Z,18.07
2022-11-06T15:43:32.131Z,18.43
2022-11-06T15:44:38.654Z,18.05
2022-11-06T15:45:42.702Z,19.19
2022-11-06T15:46:58.572Z,18.75
2022-11-06T15:48:05.182Z,17.48
2022-11-06T15:49:20.503Z,17.28
2022-11-06T15:50:29.577Z,17.07
2022-11-06T15:51:32.885Z,17.56
2022-11-06T15:52:36.026Z,16.84
2022-11-06T15:53:41.058Z,17.27
2022-11-06T15:54:48.794Z,17.72
2022-11-06T15:55:58.090Z,16.10
2022-11-06T15:57:05.050Z,16.56
2022-11-06T15:58:21.280Z,16.58
2022-11-06T15:59:24.623Z,16.18
2022-11-06T16:00:27.529Z,15.98
2022-11-06T16:01:36.927Z,17.03
2022-11-06T16:02:58.683Z,17.41
2022-11-06T16:04:05.843Z,15.80
2022-11-06T16:05:09.892Z,17.27
2022-11-06T16:06:13.019Z,17.32
2022-11-06T16:07:18.597Z,16.88
2022-11-06T16:08:24.542Z,18.50
2022-11-06T16:09:28.330Z,20.27
2022-11-06T16:10:34.589Z,20.94
2022-11-06T16:11:37.559Z,19.44
2022-11-06T16:12:43.112Z,20.06
2022-11-06T16:13:48.296Z,18.74
2022-11-06T16:14:51.834Z,18.94
2022-11-06T16:15:58.570Z,19.99
2022-11-06T16:17:11.400Z,18.11
2022-11-06T16:18:40.775Z,18.14
2022-11-06T16:19:47.015Z,16.87
2022-11-06T16:21:12.034Z,18.11
2022-11-06T16:22:21.576Z,16.36
2022-11-06T16:23:44.618Z,16.19
2022-11-06T16:24:51.847Z,16.45
2022-11-06T16:26:01.486Z,16.66
2022-11-06T16:27:07.983Z,15.75
2022-11-06T16:28:19.750Z,16.81
2022-11-06T16:29:30.293Z,17.08
2022-11-06T16:30:33.513Z,16.54
2022-11-06T16:31:37.915Z,16.59
2022-11-06T16:32:41.618Z,17.06
2022-11-06T16:33:56.522Z,16.31
2022-11-06T16:35:00.049Z,15.34
2022-11-06T16:36:12.400Z,15.78
2022-11-06T16:37:20.192Z,15.46
2022-11-06T16:38:41.126Z,14.52
2022-11-06T16:39:50.602Z,14.56
2022-11-06T16:40:55.308Z,14.64
2022-11-06T16:42:01.924Z,14.04
2022-11-06T16:43:08.817Z,14.08
2022-11-06T16:44:30.448Z,14.22
2022-11-06T16:45:30.670Z,13.46
2022-11-06T16:46:53.596Z,13.75
2022-11-06T16:48:09.343Z,15.25
2022-11-06T16:51:32.064Z,13.28
2022-11-06T16:52:40.665Z,14.23
2022-11-06T16:53:47.716Z,13.92
2022-11-06T16:55:17.151Z,13.99
2022-11-06T16:56:26.459Z,13.54
2022-11-06T16:57:36.055Z,13.42
2022-11-06T16:58:51.592Z,13.56
2022-11-06T16:59:58.173Z,13.26
2022-11-06T17:01:04.805Z,12.82
2022-11-06T17:02:11.958Z,13.55
2022-11-06T17:03:21.427Z,12.66
2022-11-06T17:04:28.987Z,12.84
2022-11-06T17:05:36.205Z,12.08
2022-11-06T17:06:39.336Z,12.64
2022-11-06T17:07:43.336Z,11.94
2022-11-06T17:08:49.856Z,11.67
2022-11-06T17:09:52.890Z,12.94
2022-11-06T17:11:01.007Z,11.44
2022-11-06T17:12:07.768Z,12.64
2022-11-06T17:13:29.497Z,12.52
2022-11-06T17:14:33.820Z,11.92
2022-11-06T17:15:37.001Z,12.27
2022-11-06T17:16:49.297Z,12.67
2022-11-06T17:17:52.442Z,12.30
2022-11-06T17:18:55.474Z,13.03
2022-11-06T17:19:58.348Z,12.98
2022-11-06T17:21:07.453Z,12.74
2022-11-06T17:22:10.627Z,14.13
2022-11-06T17:23:16.207Z,13.22
2022-11-06T17:25:24.453Z,12.58
2022-11-06T17:26:30.421Z,13.68
2022-11-06T17:27:33.710Z,12.60
2022-11-06T17:28:36.746Z,13.11
2022-11-06T17:29:40.029Z,12.89
2022-11-06T17:30:43.190Z,13.48
2022-11-06T17:31:46.404Z,11.22
2022-11-06T17:32:49.617Z,11.78
2022-11-06T17:33:53.310Z,11.09
2022-11-06T17:34:56.561Z,11.78
2022-11-06T17:35:59.929Z,12.46
2022-11-06T17:37:03.027Z,11.79
2022-11-06T17:38:07.787Z,11.73
2022-11-06T17:39:11.580Z,10.92
2022-11-06T17:40:16.023Z,11.68
2022-11-06T17:41:31.835Z,11.18
2022-11-06T17:42:35.000Z,10.19
2022-11-06T17:43:38.064Z,11.14
2022-11-06T17:44:40.927Z,11.16
2022-11-06T17:45:45.492Z,11.02
2022-11-06T17:46:49.416Z,11.36
2022-11-06T17:47:52.611Z,11.51
2022-11-06T17:48:57.179Z,12.45
2022-11-06T17:50:00.794Z,12.51
2022-11-06T17:51:22.414Z,12.25
2022-11-06T17:52:25.589Z,11.74
2022-11-06T17:53:28.864Z,12.04
2022-11-06T17:54:33.824Z,12.13
2022-11-06T17:55:36.776Z,11.68
2022-11-06T17:56:40.592Z,12.37
2022-11-06T17:57:43.506Z,13.23
2022-11-06T17:58:49.380Z,11.54
2022-11-06T17:59:53.512Z,11.79
2022-11-06T18:01:07.733Z,12.12
2022-11-06T18:02:13.599Z,11.82
2022-11-06T18:03:21.163Z,10.64
2022-11-06T18:04:26.901Z,11.21
2022-11-06T18:05:29.888Z,10.63
2022-11-06T18:06:33.063Z,10.69
2022-11-06T18:07:36.126Z,11.01
2022-11-06T18:08:39.253Z,10.45
2022-11-06T18:09:42.323Z,9.93
2022-11-06T18:10:48.227Z,10.08
2022-11-06T18:11:52.729Z,11.31
2022-11-06T18:12:56.640Z,10.78
2022-11-06T18:13:59.909Z,10.83
2022-11-06T18:15:06.914Z,11.39
2022-11-06T18:16:17.320Z,11.49
2022-11-06T18:17:20.674Z,11.08
2022-11-06T18:18:23.716Z,10.76
2022-11-06T18:19:29.104Z,10.96
2022-11-06T18:20:32.087Z,10.91
2022-11-06T18:21:35.209Z,11.06
2022-11-06T18:22:38.159Z,11.09
2022-11-06T18:23:41.399Z,11.02
2022-11-06T18:24:44.552Z,11.17
2022-11-06T18:25:56.076Z,10.96
2022-11-06T18:26:59.808Z,10.24
2022-11-06T18:28:03.923Z,10.99
2022-11-06T18:29:08.072Z,11.72
2022-11-06T18:30:12.123Z,10.44
2022-11-06T18:31:15.621Z,10.38
2022-11-06T18:32:18.694Z,11.55
2022-11-06T18:33:21.553Z,10.91
2022-11-06T18:34:24.539Z,11.10
2022-11-06T18:35:27.680Z,11.05
2022-11-06T18:36:32.186Z,11.05
2022-11-06T18:37:35.394Z,10.69
2022-11-06T18:38:39.691Z,10.68
2022-11-06T18:39:42.833Z,11.37
2022-11-06T18:40:51.230Z,11.69
2022-11-06T18:41:51.039Z,11.37
2022-11-06T18:42:54.496Z,11.66
2022-11-06T18:43:58.350Z,13.40
2022-11-06T18:45:01.232Z,12.44
2022-11-06T18:46:05.717Z,12.59
2022-11-06T18:47:08.590Z,13.29
2022-11-06T18:48:14.772Z,12.37
2022-11-06T18:49:16.810Z,14.34
2022-11-06T18:50:19.989Z,14.15
2022-11-06T18:51:34.701Z,14.65
2022-11-06T18:52:55.773Z,14.19
2022-11-06T18:53:37.433Z,14.61
2022-11-06T18:54:40.404Z,15.42
2022-11-06T18:55:48.139Z,15.09
2022-11-06T18:56:51.128Z,15.13
2022-11-06T18:57:54.321Z,14.79
2022-11-06T18:58:57.274Z,15.08
2022-11-06T19:00:00.136Z,14.73
2022-11-06T19:01:07.881Z,13.78
2022-11-06T19:02:11.233Z,13.13